RUTA 3 TRACK Tamarite-Albelda por La Penella

Extensible Markup Language (XML) icon RUTA 3 TRACK Tamarite-Albelda por La Penella.GPX — Extensible Markup Language (XML), 30 KB (30768 bytes)

Contenido del Archivo

<?xml version="1.0" encoding="UTF-8" standalone="no" ?>
<gpx xmlns="http://www.topografix.com/GPX/1/1" creator="CompeGPS" version="1.1" xmlns:xsi="http://www.w3.org/2001/XMLSchema-instance" xsi:schemaLocation="http://www.topografix.com/GPX/1/1 http://www.topografix.com/GPX/1/1/gpx.xsd">
  <metadata>
    <link href="http://www.compegps.com">
      <text>CompeGPS TEAM, SL</text>
    </link>
    <time>2019-05-08T16:46:58Z</time>
    <bounds maxlat="41.874458" maxlon="0.458167" minlat="41.863459" minlon="0.422546"/>
  </metadata>
  <trk>
    <name>TRACK Tamarite-Albelda</name>
    <trkseg>
      <trkpt lat="41.871478" lon="0.422546">
        <ele>370.5</ele>
        <time>2012-07-08T12:00:26Z</time>
      </trkpt>
      <trkpt lat="41.871761" lon="0.422589">
        <ele>377.1</ele>
        <time>2012-07-08T12:00:49Z</time>
      </trkpt>
      <trkpt lat="41.872013" lon="0.422594">
        <ele>382.0</ele>
        <time>2012-07-08T12:01:09Z</time>
      </trkpt>
      <trkpt lat="41.872294" lon="0.422652">
        <ele>384.3</ele>
        <time>2012-07-08T12:01:32Z</time>
      </trkpt>
      <trkpt lat="41.872473" lon="0.422765">
        <ele>387.5</ele>
        <time>2012-07-08T12:01:48Z</time>
      </trkpt>
      <trkpt lat="41.872591" lon="0.422980">
        <ele>391.1</ele>
        <time>2012-07-08T12:02:04Z</time>
      </trkpt>
      <trkpt lat="41.872691" lon="0.423200">
        <ele>391.4</ele>
        <time>2012-07-08T12:02:19Z</time>
      </trkpt>
      <trkpt lat="41.872711" lon="0.423430">
        <ele>396.6</ele>
        <time>2012-07-08T12:02:33Z</time>
      </trkpt>
      <trkpt lat="41.872735" lon="0.423613">
        <ele>398.8</ele>
        <time>2012-07-08T12:02:44Z</time>
      </trkpt>
      <trkpt lat="41.872776" lon="0.423668">
        <ele>399.0</ele>
        <time>2012-07-08T12:02:49Z</time>
      </trkpt>
      <trkpt lat="41.872834" lon="0.423723">
        <ele>398.9</ele>
        <time>2012-07-08T12:02:54Z</time>
      </trkpt>
      <trkpt lat="41.872898" lon="0.423858">
        <ele>398.5</ele>
        <time>2012-07-08T12:03:04Z</time>
      </trkpt>
      <trkpt lat="41.872972" lon="0.423991">
        <ele>399.4</ele>
        <time>2012-07-08T12:03:14Z</time>
      </trkpt>
      <trkpt lat="41.873014" lon="0.424149">
        <ele>401.6</ele>
        <time>2012-07-08T12:03:24Z</time>
      </trkpt>
      <trkpt lat="41.873011" lon="0.424290">
        <ele>403.6</ele>
        <time>2012-07-08T12:03:32Z</time>
      </trkpt>
      <trkpt lat="41.872971" lon="0.424379">
        <ele>403.3</ele>
        <time>2012-07-08T12:03:38Z</time>
      </trkpt>
      <trkpt lat="41.872852" lon="0.424726">
        <ele>411.3</ele>
        <time>2012-07-08T12:04:01Z</time>
      </trkpt>
      <trkpt lat="41.872740" lon="0.425234">
        <ele>413.9</ele>
        <time>2012-07-08T12:04:33Z</time>
      </trkpt>
      <trkpt lat="41.872627" lon="0.425781">
        <ele>420.0</ele>
        <time>2012-07-08T12:05:07Z</time>
      </trkpt>
      <trkpt lat="41.872564" lon="0.426246">
        <ele>422.2</ele>
        <time>2012-07-08T12:05:35Z</time>
      </trkpt>
      <trkpt lat="41.872655" lon="0.426465">
        <ele>420.3</ele>
        <time>2012-07-08T12:05:50Z</time>
      </trkpt>
      <trkpt lat="41.872664" lon="0.426475">
        <ele>420.3</ele>
        <time>2012-07-08T12:09:51Z</time>
      </trkpt>
      <trkpt lat="41.872773" lon="0.426626">
        <ele>419.2</ele>
        <time>2012-07-08T12:10:03Z</time>
      </trkpt>
      <trkpt lat="41.872810" lon="0.426776">
        <ele>416.8</ele>
        <time>2012-07-08T12:10:13Z</time>
      </trkpt>
      <trkpt lat="41.872854" lon="0.426970">
        <ele>413.9</ele>
        <time>2012-07-08T12:10:25Z</time>
      </trkpt>
      <trkpt lat="41.872949" lon="0.427064">
        <ele>412.9</ele>
        <time>2012-07-08T12:10:34Z</time>
      </trkpt>
      <trkpt lat="41.873083" lon="0.427117">
        <ele>412.6</ele>
        <time>2012-07-08T12:10:45Z</time>
      </trkpt>
      <trkpt lat="41.873294" lon="0.427175">
        <ele>413.8</ele>
        <time>2012-07-08T12:11:03Z</time>
      </trkpt>
      <trkpt lat="41.873400" lon="0.427286">
        <ele>413.0</ele>
        <time>2012-07-08T12:11:13Z</time>
      </trkpt>
      <trkpt lat="41.873532" lon="0.427406">
        <ele>411.1</ele>
        <time>2012-07-08T12:11:26Z</time>
      </trkpt>
      <trkpt lat="41.873693" lon="0.427595">
        <ele>416.8</ele>
        <time>2012-07-08T12:11:43Z</time>
      </trkpt>
      <trkpt lat="41.873775" lon="0.427716">
        <ele>418.0</ele>
        <time>2012-07-08T12:11:53Z</time>
      </trkpt>
      <trkpt lat="41.873941" lon="0.427847">
        <ele>419.8</ele>
        <time>2012-07-08T12:12:08Z</time>
      </trkpt>
      <trkpt lat="41.874010" lon="0.427973">
        <ele>420.4</ele>
        <time>2012-07-08T12:12:18Z</time>
      </trkpt>
      <trkpt lat="41.874089" lon="0.428169">
        <ele>421.2</ele>
        <time>2012-07-08T12:12:31Z</time>
      </trkpt>
      <trkpt lat="41.874142" lon="0.428433">
        <ele>421.6</ele>
        <time>2012-07-08T12:12:47Z</time>
      </trkpt>
      <trkpt lat="41.874156" lon="0.428641">
        <ele>422.5</ele>
        <time>2012-07-08T12:13:00Z</time>
      </trkpt>
      <trkpt lat="41.874104" lon="0.428848">
        <ele>421.2</ele>
        <time>2012-07-08T12:13:13Z</time>
      </trkpt>
      <trkpt lat="41.874005" lon="0.429030">
        <ele>422.3</ele>
        <time>2012-07-08T12:13:26Z</time>
      </trkpt>
      <trkpt lat="41.873868" lon="0.429298">
        <ele>422.0</ele>
        <time>2012-07-08T12:13:46Z</time>
      </trkpt>
      <trkpt lat="41.873816" lon="0.429607">
        <ele>422.9</ele>
        <time>2012-07-08T12:14:05Z</time>
      </trkpt>
      <trkpt lat="41.873833" lon="0.429949">
        <ele>426.2</ele>
        <time>2012-07-08T12:14:25Z</time>
      </trkpt>
      <trkpt lat="41.873856" lon="0.430223">
        <ele>427.6</ele>
        <time>2012-07-08T12:14:41Z</time>
      </trkpt>
      <trkpt lat="41.873924" lon="0.430563">
        <ele>426.3</ele>
        <time>2012-07-08T12:15:02Z</time>
      </trkpt>
      <trkpt lat="41.873991" lon="0.430774">
        <ele>426.2</ele>
        <time>2012-07-08T12:15:16Z</time>
      </trkpt>
      <trkpt lat="41.874074" lon="0.430918">
        <ele>426.1</ele>
        <time>2012-07-08T12:15:27Z</time>
      </trkpt>
      <trkpt lat="41.874204" lon="0.431072">
        <ele>428.9</ele>
        <time>2012-07-08T12:15:41Z</time>
      </trkpt>
      <trkpt lat="41.874267" lon="0.431291">
        <ele>429.2</ele>
        <time>2012-07-08T12:15:55Z</time>
      </trkpt>
      <trkpt lat="41.874264" lon="0.431473">
        <ele>428.6</ele>
        <time>2012-07-08T12:16:06Z</time>
      </trkpt>
      <trkpt lat="41.874336" lon="0.431550">
        <ele>429.0</ele>
        <time>2012-07-08T12:16:13Z</time>
      </trkpt>
      <trkpt lat="41.874419" lon="0.431685">
        <ele>429.3</ele>
        <time>2012-07-08T12:16:23Z</time>
      </trkpt>
      <trkpt lat="41.874458" lon="0.431794">
        <ele>429.4</ele>
        <time>2012-07-08T12:16:31Z</time>
      </trkpt>
      <trkpt lat="41.874454" lon="0.431923">
        <ele>429.0</ele>
        <time>2012-07-08T12:16:38Z</time>
      </trkpt>
      <trkpt lat="41.874435" lon="0.432138">
        <ele>429.2</ele>
        <time>2012-07-08T12:16:51Z</time>
      </trkpt>
      <trkpt lat="41.874400" lon="0.432495">
        <ele>428.4</ele>
        <time>2012-07-08T12:17:13Z</time>
      </trkpt>
      <trkpt lat="41.874369" lon="0.432714">
        <ele>427.8</ele>
        <time>2012-07-08T12:17:26Z</time>
      </trkpt>
      <trkpt lat="41.874382" lon="0.432860">
        <ele>428.3</ele>
        <time>2012-07-08T12:17:35Z</time>
      </trkpt>
      <trkpt lat="41.874428" lon="0.432979">
        <ele>429.7</ele>
        <time>2012-07-08T12:17:43Z</time>
      </trkpt>
      <trkpt lat="41.874409" lon="0.433175">
        <ele>429.9</ele>
        <time>2012-07-08T12:17:55Z</time>
      </trkpt>
      <trkpt lat="41.874390" lon="0.433367">
        <ele>428.6</ele>
        <time>2012-07-08T12:18:06Z</time>
      </trkpt>
      <trkpt lat="41.874414" lon="0.433557">
        <ele>428.8</ele>
        <time>2012-07-08T12:18:18Z</time>
      </trkpt>
      <trkpt lat="41.874439" lon="0.433784">
        <ele>430.3</ele>
        <time>2012-07-08T12:18:31Z</time>
      </trkpt>
      <trkpt lat="41.874396" lon="0.434261">
        <ele>430.4</ele>
        <time>2012-07-08T12:19:00Z</time>
      </trkpt>
      <trkpt lat="41.874369" lon="0.434525">
        <ele>428.5</ele>
        <time>2012-07-08T12:19:16Z</time>
      </trkpt>
      <trkpt lat="41.874352" lon="0.434800">
        <ele>429.2</ele>
        <time>2012-07-08T12:19:32Z</time>
      </trkpt>
      <trkpt lat="41.874288" lon="0.435007">
        <ele>430.5</ele>
        <time>2012-07-08T12:19:46Z</time>
      </trkpt>
      <trkpt lat="41.874155" lon="0.435320">
        <ele>430.0</ele>
        <time>2012-07-08T12:20:07Z</time>
      </trkpt>
      <trkpt lat="41.873973" lon="0.435660">
        <ele>431.8</ele>
        <time>2012-07-08T12:20:32Z</time>
      </trkpt>
      <trkpt lat="41.873852" lon="0.435892">
        <ele>431.9</ele>
        <time>2012-07-08T12:20:49Z</time>
      </trkpt>
      <trkpt lat="41.873802" lon="0.436054">
        <ele>432.5</ele>
        <time>2012-07-08T12:20:59Z</time>
      </trkpt>
      <trkpt lat="41.873648" lon="0.436296">
        <ele>430.4</ele>
        <time>2012-07-08T12:21:18Z</time>
      </trkpt>
      <trkpt lat="41.873635" lon="0.436452">
        <ele>432.1</ele>
        <time>2012-07-08T12:21:28Z</time>
      </trkpt>
      <trkpt lat="41.873623" lon="0.436671">
        <ele>433.1</ele>
        <time>2012-07-08T12:21:41Z</time>
      </trkpt>
      <trkpt lat="41.873612" lon="0.436924">
        <ele>434.4</ele>
        <time>2012-07-08T12:21:56Z</time>
      </trkpt>
      <trkpt lat="41.873594" lon="0.437130">
        <ele>436.0</ele>
        <time>2012-07-08T12:22:08Z</time>
      </trkpt>
      <trkpt lat="41.873539" lon="0.437377">
        <ele>438.5</ele>
        <time>2012-07-08T12:22:24Z</time>
      </trkpt>
      <trkpt lat="41.873506" lon="0.437534">
        <ele>438.3</ele>
        <time>2012-07-08T12:22:33Z</time>
      </trkpt>
      <trkpt lat="41.873499" lon="0.437663">
        <ele>438.3</ele>
        <time>2012-07-08T12:22:41Z</time>
      </trkpt>
      <trkpt lat="41.873480" lon="0.437871">
        <ele>437.6</ele>
        <time>2012-07-08T12:22:54Z</time>
      </trkpt>
      <trkpt lat="41.873430" lon="0.438028">
        <ele>437.3</ele>
        <time>2012-07-08T12:23:04Z</time>
      </trkpt>
      <trkpt lat="41.873390" lon="0.438154">
        <ele>436.6</ele>
        <time>2012-07-08T12:23:12Z</time>
      </trkpt>
      <trkpt lat="41.873413" lon="0.438327">
        <ele>435.6</ele>
        <time>2012-07-08T12:23:22Z</time>
      </trkpt>
      <trkpt lat="41.873396" lon="0.438554">
        <ele>434.9</ele>
        <time>2012-07-08T12:23:36Z</time>
      </trkpt>
      <trkpt lat="41.873372" lon="0.438840">
        <ele>433.1</ele>
        <time>2012-07-08T12:23:53Z</time>
      </trkpt>
      <trkpt lat="41.873304" lon="0.439238">
        <ele>429.2</ele>
        <time>2012-07-08T12:24:17Z</time>
      </trkpt>
      <trkpt lat="41.873205" lon="0.439540">
        <ele>428.5</ele>
        <time>2012-07-08T12:24:37Z</time>
      </trkpt>
      <trkpt lat="41.873116" lon="0.439726">
        <ele>431.2</ele>
        <time>2012-07-08T12:24:50Z</time>
      </trkpt>
      <trkpt lat="41.873062" lon="0.439986">
        <ele>430.3</ele>
        <time>2012-07-08T12:25:06Z</time>
      </trkpt>
      <trkpt lat="41.873010" lon="0.440211">
        <ele>429.0</ele>
        <time>2012-07-08T12:25:20Z</time>
      </trkpt>
      <trkpt lat="41.872836" lon="0.440453">
        <ele>430.9</ele>
        <time>2012-07-08T12:25:41Z</time>
      </trkpt>
      <trkpt lat="41.872697" lon="0.440628">
        <ele>429.8</ele>
        <time>2012-07-08T12:25:56Z</time>
      </trkpt>
      <trkpt lat="41.872651" lon="0.440786">
        <ele>427.7</ele>
        <time>2012-07-08T12:26:06Z</time>
      </trkpt>
      <trkpt lat="41.872555" lon="0.441086">
        <ele>426.4</ele>
        <time>2012-07-08T12:26:25Z</time>
      </trkpt>
      <trkpt lat="41.872499" lon="0.441244">
        <ele>424.7</ele>
        <time>2012-07-08T12:26:36Z</time>
      </trkpt>
      <trkpt lat="41.872402" lon="0.441506">
        <ele>421.0</ele>
        <time>2012-07-08T12:26:53Z</time>
      </trkpt>
      <trkpt lat="41.872294" lon="0.441875">
        <ele>417.0</ele>
        <time>2012-07-08T12:27:17Z</time>
      </trkpt>
      <trkpt lat="41.872224" lon="0.442167">
        <ele>414.3</ele>
        <time>2012-07-08T12:27:35Z</time>
      </trkpt>
      <trkpt lat="41.872119" lon="0.442393">
        <ele>413.4</ele>
        <time>2012-07-08T12:27:51Z</time>
      </trkpt>
      <trkpt lat="41.872096" lon="0.442523">
        <ele>411.5</ele>
        <time>2012-07-08T12:27:59Z</time>
      </trkpt>
      <trkpt lat="41.872034" lon="0.442722">
        <ele>409.0</ele>
        <time>2012-07-08T12:28:12Z</time>
      </trkpt>
      <trkpt lat="41.871942" lon="0.442948">
        <ele>406.2</ele>
        <time>2012-07-08T12:28:27Z</time>
      </trkpt>
      <trkpt lat="41.871820" lon="0.443122">
        <ele>406.4</ele>
        <time>2012-07-08T12:28:41Z</time>
      </trkpt>
      <trkpt lat="41.871783" lon="0.443234">
        <ele>404.4</ele>
        <time>2012-07-08T12:28:49Z</time>
      </trkpt>
      <trkpt lat="41.871856" lon="0.443262">
        <ele>401.0</ele>
        <time>2012-07-08T12:28:55Z</time>
      </trkpt>
      <trkpt lat="41.871981" lon="0.443204">
        <ele>399.4</ele>
        <time>2012-07-08T12:29:05Z</time>
      </trkpt>
      <trkpt lat="41.872206" lon="0.443021">
        <ele>399.3</ele>
        <time>2012-07-08T12:29:27Z</time>
      </trkpt>
      <trkpt lat="41.872487" lon="0.442784">
        <ele>399.3</ele>
        <time>2012-07-08T12:29:53Z</time>
      </trkpt>
      <trkpt lat="41.872704" lon="0.442535">
        <ele>398.3</ele>
        <time>2012-07-08T12:30:16Z</time>
      </trkpt>
      <trkpt lat="41.872757" lon="0.442528">
        <ele>397.4</ele>
        <time>2012-07-08T12:30:20Z</time>
      </trkpt>
      <trkpt lat="41.872788" lon="0.442576">
        <ele>396.6</ele>
        <time>2012-07-08T12:30:24Z</time>
      </trkpt>
      <trkpt lat="41.872892" lon="0.442741">
        <ele>394.3</ele>
        <time>2012-07-08T12:30:37Z</time>
      </trkpt>
      <trkpt lat="41.872979" lon="0.442942">
        <ele>392.1</ele>
        <time>2012-07-08T12:30:51Z</time>
      </trkpt>
      <trkpt lat="41.872905" lon="0.443047">
        <ele>392.1</ele>
        <time>2012-07-08T12:30:59Z</time>
      </trkpt>
      <trkpt lat="41.872827" lon="0.443139">
        <ele>392.4</ele>
        <time>2012-07-08T12:31:08Z</time>
      </trkpt>
      <trkpt lat="41.872616" lon="0.443348">
        <ele>392.7</ele>
        <time>2012-07-08T12:31:29Z</time>
      </trkpt>
      <trkpt lat="41.872478" lon="0.443411">
        <ele>392.7</ele>
        <time>2012-07-08T12:31:40Z</time>
      </trkpt>
      <trkpt lat="41.872172" lon="0.443566">
        <ele>391.5</ele>
        <time>2012-07-08T12:32:06Z</time>
      </trkpt>
      <trkpt lat="41.871903" lon="0.443741">
        <ele>390.9</ele>
        <time>2012-07-08T12:32:30Z</time>
      </trkpt>
      <trkpt lat="41.871746" lon="0.443841">
        <ele>389.8</ele>
        <time>2012-07-08T12:32:44Z</time>
      </trkpt>
      <trkpt lat="41.871512" lon="0.443926">
        <ele>389.8</ele>
        <time>2012-07-08T12:33:04Z</time>
      </trkpt>
      <trkpt lat="41.871393" lon="0.444017">
        <ele>389.6</ele>
        <time>2012-07-08T12:33:15Z</time>
      </trkpt>
      <trkpt lat="41.871325" lon="0.444108">
        <ele>388.7</ele>
        <time>2012-07-08T12:33:22Z</time>
      </trkpt>
      <trkpt lat="41.871221" lon="0.444206">
        <ele>387.8</ele>
        <time>2012-07-08T12:33:33Z</time>
      </trkpt>
      <trkpt lat="41.871088" lon="0.444225">
        <ele>387.2</ele>
        <time>2012-07-08T12:33:43Z</time>
      </trkpt>
      <trkpt lat="41.870886" lon="0.444246">
        <ele>385.7</ele>
        <time>2012-07-08T12:34:00Z</time>
      </trkpt>
      <trkpt lat="41.870638" lon="0.444291">
        <ele>384.8</ele>
        <time>2012-07-08T12:34:20Z</time>
      </trkpt>
      <trkpt lat="41.870507" lon="0.444394">
        <ele>381.1</ele>
        <time>2012-07-08T12:34:32Z</time>
      </trkpt>
      <trkpt lat="41.870361" lon="0.444560">
        <ele>379.3</ele>
        <time>2012-07-08T12:34:47Z</time>
      </trkpt>
      <trkpt lat="41.870294" lon="0.444683">
        <ele>377.4</ele>
        <time>2012-07-08T12:34:56Z</time>
      </trkpt>
      <trkpt lat="41.870192" lon="0.444767">
        <ele>379.2</ele>
        <time>2012-07-08T12:35:06Z</time>
      </trkpt>
      <trkpt lat="41.870061" lon="0.444843">
        <ele>380.4</ele>
        <time>2012-07-08T12:35:17Z</time>
      </trkpt>
      <trkpt lat="41.869968" lon="0.444972">
        <ele>379.7</ele>
        <time>2012-07-08T12:35:28Z</time>
      </trkpt>
      <trkpt lat="41.869900" lon="0.445068">
        <ele>379.4</ele>
        <time>2012-07-08T12:35:36Z</time>
      </trkpt>
      <trkpt lat="41.869863" lon="0.445197">
        <ele>377.7</ele>
        <time>2012-07-08T12:35:44Z</time>
      </trkpt>
      <trkpt lat="41.869782" lon="0.445298">
        <ele>375.8</ele>
        <time>2012-07-08T12:35:53Z</time>
      </trkpt>
      <trkpt lat="41.869579" lon="0.445435">
        <ele>371.6</ele>
        <time>2012-07-08T12:36:11Z</time>
      </trkpt>
      <trkpt lat="41.869293" lon="0.445584">
        <ele>371.2</ele>
        <time>2012-07-08T12:36:36Z</time>
      </trkpt>
      <trkpt lat="41.869263" lon="0.445687">
        <ele>371.0</ele>
        <time>2012-07-08T12:36:42Z</time>
      </trkpt>
      <trkpt lat="41.869239" lon="0.445826">
        <ele>369.7</ele>
        <time>2012-07-08T12:36:51Z</time>
      </trkpt>
      <trkpt lat="41.869180" lon="0.445993">
        <ele>368.3</ele>
        <time>2012-07-08T12:37:02Z</time>
      </trkpt>
      <trkpt lat="41.869057" lon="0.446149">
        <ele>365.2</ele>
        <time>2012-07-08T12:37:15Z</time>
      </trkpt>
      <trkpt lat="41.868938" lon="0.446341">
        <ele>363.8</ele>
        <time>2012-07-08T12:37:30Z</time>
      </trkpt>
      <trkpt lat="41.869061" lon="0.446487">
        <ele>364.7</ele>
        <time>2012-07-08T12:37:43Z</time>
      </trkpt>
      <trkpt lat="41.869190" lon="0.446633">
        <ele>367.9</ele>
        <time>2012-07-08T12:37:57Z</time>
      </trkpt>
      <trkpt lat="41.869420" lon="0.446944">
        <ele>374.4</ele>
        <time>2012-07-08T12:38:23Z</time>
      </trkpt>
      <trkpt lat="41.869603" lon="0.447120">
        <ele>377.4</ele>
        <time>2012-07-08T12:38:41Z</time>
      </trkpt>
      <trkpt lat="41.869897" lon="0.447490">
        <ele>377.3</ele>
        <time>2012-07-08T12:39:13Z</time>
      </trkpt>
      <trkpt lat="41.870127" lon="0.447792">
        <ele>380.9</ele>
        <time>2012-07-08T12:39:39Z</time>
      </trkpt>
      <trkpt lat="41.870310" lon="0.447936">
        <ele>380.3</ele>
        <time>2012-07-08T12:39:56Z</time>
      </trkpt>
      <trkpt lat="41.870305" lon="0.448039">
        <ele>378.7</ele>
        <time>2012-07-08T12:40:02Z</time>
      </trkpt>
      <trkpt lat="41.870244" lon="0.448148">
        <ele>379.6</ele>
        <time>2012-07-08T12:40:10Z</time>
      </trkpt>
      <trkpt lat="41.870187" lon="0.448226">
        <ele>380.7</ele>
        <time>2012-07-08T12:40:17Z</time>
      </trkpt>
      <trkpt lat="41.870124" lon="0.448268">
        <ele>383.2</ele>
        <time>2012-07-08T12:40:22Z</time>
      </trkpt>
      <trkpt lat="41.869943" lon="0.448173">
        <ele>386.0</ele>
        <time>2012-07-08T12:40:38Z</time>
      </trkpt>
      <trkpt lat="41.869716" lon="0.448115">
        <ele>384.4</ele>
        <time>2012-07-08T12:40:56Z</time>
      </trkpt>
      <trkpt lat="41.869541" lon="0.448060">
        <ele>382.4</ele>
        <time>2012-07-08T12:41:11Z</time>
      </trkpt>
      <trkpt lat="41.869472" lon="0.448081">
        <ele>381.9</ele>
        <time>2012-07-08T12:41:16Z</time>
      </trkpt>
      <trkpt lat="41.869402" lon="0.448208">
        <ele>382.0</ele>
        <time>2012-07-08T12:41:26Z</time>
      </trkpt>
      <trkpt lat="41.869338" lon="0.448335">
        <ele>381.4</ele>
        <time>2012-07-08T12:41:35Z</time>
      </trkpt>
      <trkpt lat="41.869241" lon="0.448446">
        <ele>379.7</ele>
        <time>2012-07-08T12:41:45Z</time>
      </trkpt>
      <trkpt lat="41.869122" lon="0.448570">
        <ele>379.6</ele>
        <time>2012-07-08T12:41:57Z</time>
      </trkpt>
      <trkpt lat="41.869036" lon="0.448734">
        <ele>382.5</ele>
        <time>2012-07-08T12:42:09Z</time>
      </trkpt>
      <trkpt lat="41.868918" lon="0.448957">
        <ele>385.8</ele>
        <time>2012-07-08T12:42:25Z</time>
      </trkpt>
      <trkpt lat="41.868762" lon="0.449079">
        <ele>384.3</ele>
        <time>2012-07-08T12:42:40Z</time>
      </trkpt>
      <trkpt lat="41.868617" lon="0.449294">
        <ele>383.3</ele>
        <time>2012-07-08T12:42:57Z</time>
      </trkpt>
      <trkpt lat="41.868580" lon="0.449442">
        <ele>384.1</ele>
        <time>2012-07-08T12:43:07Z</time>
      </trkpt>
      <trkpt lat="41.868570" lon="0.449727">
        <ele>388.4</ele>
        <time>2012-07-08T12:43:24Z</time>
      </trkpt>
      <trkpt lat="41.868566" lon="0.450003">
        <ele>391.1</ele>
        <time>2012-07-08T12:43:40Z</time>
      </trkpt>
      <trkpt lat="41.868567" lon="0.450172">
        <ele>391.0</ele>
        <time>2012-07-08T12:43:50Z</time>
      </trkpt>
      <trkpt lat="41.868543" lon="0.450311">
        <ele>390.2</ele>
        <time>2012-07-08T12:43:59Z</time>
      </trkpt>
      <trkpt lat="41.868455" lon="0.450531">
        <ele>389.9</ele>
        <time>2012-07-08T12:44:14Z</time>
      </trkpt>
      <trkpt lat="41.868388" lon="0.450783">
        <ele>391.8</ele>
        <time>2012-07-08T12:44:29Z</time>
      </trkpt>
      <trkpt lat="41.868341" lon="0.450950">
        <ele>392.8</ele>
        <time>2012-07-08T12:44:40Z</time>
      </trkpt>
      <trkpt lat="41.868276" lon="0.450993">
        <ele>391.4</ele>
        <time>2012-07-08T12:44:46Z</time>
      </trkpt>
      <trkpt lat="41.868150" lon="0.450951">
        <ele>390.4</ele>
        <time>2012-07-08T12:44:56Z</time>
      </trkpt>
      <trkpt lat="41.868051" lon="0.450964">
        <ele>390.3</ele>
        <time>2012-07-08T12:45:04Z</time>
      </trkpt>
      <trkpt lat="41.867978" lon="0.451141">
        <ele>391.3</ele>
        <time>2012-07-08T12:45:16Z</time>
      </trkpt>
      <trkpt lat="41.867843" lon="0.451488">
        <ele>393.0</ele>
        <time>2012-07-08T12:45:40Z</time>
      </trkpt>
      <trkpt lat="41.867788" lon="0.451704">
        <ele>393.5</ele>
        <time>2012-07-08T12:45:53Z</time>
      </trkpt>
      <trkpt lat="41.867720" lon="0.451778">
        <ele>393.1</ele>
        <time>2012-07-08T12:46:00Z</time>
      </trkpt>
      <trkpt lat="41.867591" lon="0.451818">
        <ele>392.0</ele>
        <time>2012-07-08T12:46:11Z</time>
      </trkpt>
      <trkpt lat="41.867488" lon="0.451952">
        <ele>391.6</ele>
        <time>2012-07-08T12:46:22Z</time>
      </trkpt>
      <trkpt lat="41.867398" lon="0.452115">
        <ele>391.1</ele>
        <time>2012-07-08T12:46:34Z</time>
      </trkpt>
      <trkpt lat="41.867317" lon="0.452359">
        <ele>390.1</ele>
        <time>2012-07-08T12:46:50Z</time>
      </trkpt>
      <trkpt lat="41.867204" lon="0.452483">
        <ele>389.9</ele>
        <time>2012-07-08T12:47:02Z</time>
      </trkpt>
      <trkpt lat="41.867138" lon="0.452508">
        <ele>390.0</ele>
        <time>2012-07-08T12:47:08Z</time>
      </trkpt>
      <trkpt lat="41.866952" lon="0.452662">
        <ele>389.3</ele>
        <time>2012-07-08T12:47:25Z</time>
      </trkpt>
      <trkpt lat="41.866846" lon="0.452684">
        <ele>388.9</ele>
        <time>2012-07-08T12:47:34Z</time>
      </trkpt>
      <trkpt lat="41.866666" lon="0.452633">
        <ele>388.0</ele>
        <time>2012-07-08T12:47:48Z</time>
      </trkpt>
      <trkpt lat="41.866545" lon="0.452558">
        <ele>385.6</ele>
        <time>2012-07-08T12:47:59Z</time>
      </trkpt>
      <trkpt lat="41.866412" lon="0.452563">
        <ele>383.3</ele>
        <time>2012-07-08T12:48:10Z</time>
      </trkpt>
      <trkpt lat="41.866251" lon="0.452659">
        <ele>380.8</ele>
        <time>2012-07-08T12:48:24Z</time>
      </trkpt>
      <trkpt lat="41.866119" lon="0.452686">
        <ele>379.6</ele>
        <time>2012-07-08T12:48:34Z</time>
      </trkpt>
      <trkpt lat="41.866098" lon="0.452785">
        <ele>379.5</ele>
        <time>2012-07-08T12:48:41Z</time>
      </trkpt>
      <trkpt lat="41.866030" lon="0.453032">
        <ele>377.8</ele>
        <time>2012-07-08T12:48:56Z</time>
      </trkpt>
      <trkpt lat="41.865952" lon="0.453119">
        <ele>376.5</ele>
        <time>2012-07-08T12:49:04Z</time>
      </trkpt>
      <trkpt lat="41.865690" lon="0.453268">
        <ele>373.7</ele>
        <time>2012-07-08T12:49:27Z</time>
      </trkpt>
      <trkpt lat="41.865513" lon="0.453417">
        <ele>371.4</ele>
        <time>2012-07-08T12:49:44Z</time>
      </trkpt>
      <trkpt lat="41.865446" lon="0.453527">
        <ele>370.8</ele>
        <time>2012-07-08T12:49:52Z</time>
      </trkpt>
      <trkpt lat="41.865402" lon="0.453666">
        <ele>370.6</ele>
        <time>2012-07-08T12:50:01Z</time>
      </trkpt>
      <trkpt lat="41.865356" lon="0.453797">
        <ele>370.5</ele>
        <time>2012-07-08T12:50:10Z</time>
      </trkpt>
      <trkpt lat="41.865249" lon="0.453921">
        <ele>372.4</ele>
        <time>2012-07-08T12:50:21Z</time>
      </trkpt>
      <trkpt lat="41.865221" lon="0.454020">
        <ele>373.8</ele>
        <time>2012-07-08T12:50:28Z</time>
      </trkpt>
      <trkpt lat="41.865169" lon="0.454162">
        <ele>374.1</ele>
        <time>2012-07-08T12:50:37Z</time>
      </trkpt>
      <trkpt lat="41.865114" lon="0.454257">
        <ele>372.3</ele>
        <time>2012-07-08T12:50:44Z</time>
      </trkpt>
      <trkpt lat="41.865096" lon="0.454361">
        <ele>372.4</ele>
        <time>2012-07-08T12:50:51Z</time>
      </trkpt>
      <trkpt lat="41.865081" lon="0.454539">
        <ele>376.1</ele>
        <time>2012-07-08T12:51:01Z</time>
      </trkpt>
      <trkpt lat="41.865054" lon="0.454678">
        <ele>378.4</ele>
        <time>2012-07-08T12:51:10Z</time>
      </trkpt>
      <trkpt lat="41.865027" lon="0.454821">
        <ele>378.8</ele>
        <time>2012-07-08T12:51:19Z</time>
      </trkpt>
      <trkpt lat="41.864982" lon="0.455036">
        <ele>378.1</ele>
        <time>2012-07-08T12:51:32Z</time>
      </trkpt>
      <trkpt lat="41.864960" lon="0.455215">
        <ele>376.9</ele>
        <time>2012-07-08T12:51:43Z</time>
      </trkpt>
      <trkpt lat="41.864930" lon="0.455385">
        <ele>376.7</ele>
        <time>2012-07-08T12:51:53Z</time>
      </trkpt>
      <trkpt lat="41.864899" lon="0.455507">
        <ele>376.3</ele>
        <time>2012-07-08T12:52:01Z</time>
      </trkpt>
      <trkpt lat="41.864822" lon="0.455608">
        <ele>372.7</ele>
        <time>2012-07-08T12:52:10Z</time>
      </trkpt>
      <trkpt lat="41.864740" lon="0.455651">
        <ele>368.9</ele>
        <time>2012-07-08T12:52:17Z</time>
      </trkpt>
      <trkpt lat="41.864638" lon="0.455655">
        <ele>365.1</ele>
        <time>2012-07-08T12:52:25Z</time>
      </trkpt>
      <trkpt lat="41.864555" lon="0.455658">
        <ele>362.0</ele>
        <time>2012-07-08T12:52:31Z</time>
      </trkpt>
      <trkpt lat="41.864375" lon="0.455742">
        <ele>361.1</ele>
        <time>2012-07-08T12:52:47Z</time>
      </trkpt>
      <trkpt lat="41.864290" lon="0.455929">
        <ele>360.6</ele>
        <time>2012-07-08T12:53:00Z</time>
      </trkpt>
      <trkpt lat="41.864233" lon="0.456247">
        <ele>359.1</ele>
        <time>2012-07-08T12:53:19Z</time>
      </trkpt>
      <trkpt lat="41.864150" lon="0.456382">
        <ele>358.2</ele>
        <time>2012-07-08T12:53:30Z</time>
      </trkpt>
      <trkpt lat="41.863999" lon="0.456640">
        <ele>356.4</ele>
        <time>2012-07-08T12:53:49Z</time>
      </trkpt>
      <trkpt lat="41.863856" lon="0.456808">
        <ele>356.2</ele>
        <time>2012-07-08T12:54:04Z</time>
      </trkpt>
      <trkpt lat="41.863824" lon="0.456924">
        <ele>354.2</ele>
        <time>2012-07-08T12:54:12Z</time>
      </trkpt>
      <trkpt lat="41.863747" lon="0.457187">
        <ele>350.7</ele>
        <time>2012-07-08T12:54:29Z</time>
      </trkpt>
      <trkpt lat="41.863687" lon="0.457360">
        <ele>348.1</ele>
        <time>2012-07-08T12:54:40Z</time>
      </trkpt>
      <trkpt lat="41.863619" lon="0.457589">
        <ele>346.1</ele>
        <time>2012-07-08T12:54:55Z</time>
      </trkpt>
      <trkpt lat="41.863580" lon="0.457736">
        <ele>345.5</ele>
        <time>2012-07-08T12:55:04Z</time>
      </trkpt>
      <trkpt lat="41.863512" lon="0.457973">
        <ele>345.0</ele>
        <time>2012-07-08T12:55:19Z</time>
      </trkpt>
      <trkpt lat="41.863459" lon="0.458167">
        <ele>345.0</ele>
        <time>2012-07-08T12:55:31Z</time>
      </trkpt>
    </trkseg>
  </trk>
</gpx>